Lobos, Argentina
Current Conditions -  °F | °C
As of 2:00 PM on Friday 24 Oct 2014 (Local Time) from SAEZ Reporting Station
Broken Clouds Broken Clouds  
Wind Chill: 86°   Ceiling: 20000
Heat Index: 87°   Visibility: 6mi
Dew Point: 63°   Wind: 7mph
Humidity: 45%   Direction: 70°ENE
Pressure: 29.97"   Gusts: NA
Location:  35.18°S, 59.1°W
Report Text: SAEZ 241700Z 07006KT 030V110 9999 FEW045 BKN200 30/17 Q1015
Loading
Personal Weather Stations






























Interactive Weather Map
Tropical Storm Tracking
New forecast layout! Learn more

10-Day Weather Forecast

Advertisements
Track Severe Weather on mobile